createdAt,value
2023-03-21T00:05:31.694Z,8.50
2023-03-21T00:15:44.125Z,8.30
2023-03-21T00:25:57.339Z,8.00
2023-03-21T00:36:05.242Z,8.10
2023-03-21T00:46:09.490Z,8.00
2023-03-21T00:56:11.350Z,8.00
2023-03-21T01:06:13.608Z,8.10
2023-03-21T01:16:15.604Z,8.20
2023-03-21T01:26:17.957Z,8.20
2023-03-21T01:36:24.315Z,8.10
2023-03-21T01:46:49.647Z,8.00
2023-03-21T01:57:21.794Z,7.90
2023-03-21T02:07:33.489Z,7.90
2023-03-21T02:18:02.279Z,7.80
2023-03-21T02:28:20.647Z,7.80
2023-03-21T02:38:37.521Z,7.80
2023-03-21T02:48:51.099Z,7.80
2023-03-21T02:58:54.587Z,7.80
2023-03-21T03:09:03.000Z,7.70
2023-03-21T03:19:11.055Z,7.80
2023-03-21T03:29:19.870Z,7.70
2023-03-21T03:39:27.125Z,7.70
2023-03-21T03:49:46.622Z,7.60
2023-03-21T03:59:49.273Z,7.60
2023-03-21T04:09:58.838Z,7.60
2023-03-21T04:20:10.916Z,7.60
2023-03-21T04:30:14.778Z,7.60
2023-03-21T04:40:30.028Z,7.50
2023-03-21T04:50:32.124Z,7.50
2023-03-21T05:00:35.194Z,7.40
2023-03-21T05:10:37.144Z,7.50
2023-03-21T05:20:40.797Z,7.50
2023-03-21T05:30:42.791Z,7.50
2023-03-21T05:40:49.196Z,7.60
2023-03-21T05:50:54.033Z,7.80
2023-03-21T06:00:57.424Z,7.80
2023-03-21T06:11:12.162Z,7.90
2023-03-21T06:21:14.433Z,8.00
2023-03-21T06:31:17.102Z,8.00
2023-03-21T06:41:19.186Z,7.90
2023-03-21T06:51:31.295Z,7.70
2023-03-21T07:01:49.266Z,7.60
2023-03-21T07:11:51.350Z,7.70
2023-03-21T07:21:54.212Z,7.80
2023-03-21T07:31:56.200Z,7.90
2023-03-21T07:41:58.195Z,8.20
2023-03-21T07:52:06.767Z,8.60
2023-03-21T08:02:14.468Z,8.60
2023-03-21T08:12:16.282Z,8.60
2023-03-21T08:22:18.130Z,8.70
2023-03-21T08:32:20.686Z,8.90
2023-03-21T08:42:23.331Z,9.00
2023-03-21T08:52:26.027Z,9.00
2023-03-21T09:02:27.889Z,9.00
2023-03-21T09:12:29.940Z,9.20
2023-03-21T09:22:31.837Z,9.00
2023-03-21T09:32:34.349Z,9.20
2023-03-21T09:42:50.609Z,8.90
2023-03-21T09:53:17.751Z,8.90
2023-03-21T10:03:25.446Z,8.80
2023-03-21T10:13:32.248Z,8.80
2023-03-21T10:23:34.246Z,8.90
2023-03-21T10:33:40.052Z,9.20
2023-03-21T10:43:42.895Z,9.10
2023-03-21T10:54:15.738Z,9.00
2023-03-21T11:04:24.496Z,9.20
2023-03-21T11:14:38.015Z,9.40
2023-03-21T11:24:40.340Z,9.30
2023-03-21T11:35:01.665Z,9.10
2023-03-21T11:45:16.986Z,9.20
2023-03-21T11:55:35.914Z,9.20
2023-03-21T12:05:52.335Z,9.20
2023-03-21T12:16:21.925Z,9.20
2023-03-21T12:26:28.103Z,9.10
2023-03-21T12:36:51.833Z,9.10
2023-03-21T12:46:59.435Z,9.10
2023-03-21T12:57:13.240Z,9.20
2023-03-21T13:07:19.908Z,9.30
2023-03-21T13:17:34.975Z,9.40
2023-03-21T13:27:38.525Z,9.50
2023-03-21T13:37:49.088Z,9.70
2023-03-21T13:47:59.476Z,9.70
2023-03-21T13:58:31.155Z,9.70
2023-03-21T14:08:37.696Z,9.50
2023-03-21T14:18:59.814Z,9.60
2023-03-21T14:29:22.863Z,9.60
2023-03-21T14:39:32.933Z,9.60
2023-03-21T14:49:38.744Z,9.50
2023-03-21T14:59:42.104Z,9.80
2023-03-21T15:09:57.282Z,9.90
2023-03-21T15:19:59.336Z,9.80
2023-03-21T15:30:01.328Z,9.70
2023-03-21T15:40:20.623Z,10.00
2023-03-21T15:50:22.424Z,9.90
2023-03-21T16:00:33.804Z,9.80
2023-03-21T16:21:00.336Z,9.60
2023-03-21T16:31:02.627Z,9.60
2023-03-21T16:41:09.870Z,9.60
2023-03-21T16:51:17.009Z,9.40
2023-03-21T17:01:21.177Z,9.40
2023-03-21T17:11:25.536Z,9.30
2023-03-21T17:21:29.626Z,9.30
2023-03-21T17:31:35.098Z,9.00
2023-03-21T17:41:37.000Z,9.00
2023-03-21T17:51:39.174Z,8.80
2023-03-21T18:01:41.339Z,8.80
2023-03-21T18:11:43.177Z,8.70
2023-03-21T18:21:45.834Z,8.80
2023-03-21T18:32:04.397Z,8.70
2023-03-21T18:42:07.508Z,8.70
2023-03-21T18:52:14.170Z,8.60
2023-03-21T19:02:16.300Z,8.50
2023-03-21T19:12:18.295Z,8.50
2023-03-21T19:22:20.156Z,8.40
2023-03-21T19:32:23.106Z,8.40
2023-03-21T19:42:28.429Z,8.30
2023-03-21T19:52:31.958Z,8.30
2023-03-21T20:02:36.100Z,8.20
2023-03-21T20:12:38.391Z,8.10
2023-03-21T20:23:05.804Z,8.20
2023-03-21T20:33:02.745Z,8.10
2023-03-21T20:43:29.065Z,8.10
2023-03-21T20:53:26.906Z,8.00
2023-03-21T21:03:28.808Z,7.80
2023-03-21T21:13:30.891Z,7.80
2023-03-21T21:23:34.198Z,7.80
2023-03-21T21:33:37.089Z,7.80
2023-03-21T21:43:38.862Z,7.90
2023-03-21T21:53:40.651Z,7.90
2023-03-21T22:03:42.517Z,7.90
2023-03-21T22:13:45.424Z,7.90
2023-03-21T22:23:47.217Z,7.70
2023-03-21T22:33:49.094Z,7.60
2023-03-21T22:43:50.864Z,7.60
2023-03-21T22:53:52.698Z,7.60
2023-03-21T23:03:55.157Z,7.40
2023-03-21T23:14:07.183Z,7.50
2023-03-21T23:24:10.767Z,7.30
2023-03-21T23:34:13.389Z,7.10
2023-03-21T23:44:15.291Z,7.10
2023-03-21T23:54:17.191Z,6.90
